sensor_id;sensor_type;location;lat;lon;timestamp;temperature;humidity
16503;DHT22;53067;48.114;11.694;2023-03-29T00:00:30;5.30;65.70
16503;DHT22;53067;48.114;11.694;2023-03-29T00:03:17;5.30;65.70
16503;DHT22;53067;48.114;11.694;2023-03-29T00:05:45;5.40;65.20
16503;DHT22;53067;48.114;11.694;2023-03-29T00:08:13;5.30;65.60
16503;DHT22;53067;48.114;11.694;2023-03-29T00:10:41;5.20;65.60
16503;DHT22;53067;48.114;11.694;2023-03-29T00:13:08;5.20;65.90
16503;DHT22;53067;48.114;11.694;2023-03-29T00:15:36;5.20;66.00
16503;DHT22;53067;48.114;11.694;2023-03-29T00:18:03;5.20;66.00
16503;DHT22;53067;48.114;11.694;2023-03-29T00:20:31;5.30;66.60
16503;DHT22;53067;48.114;11.694;2023-03-29T00:22:58;5.30;66.00
16503;DHT22;53067;48.114;11.694;2023-03-29T00:25:26;5.40;65.90
16503;DHT22;53067;48.114;11.694;2023-03-29T00:27:54;5.30;65.70
16503;DHT22;53067;48.114;11.694;2023-03-29T00:30:21;5.30;65.80
16503;DHT22;53067;48.114;11.694;2023-03-29T00:32:49;5.30;65.90
16503;DHT22;53067;48.114;11.694;2023-03-29T00:35:17;5.30;66.00
16503;DHT22;53067;48.114;11.694;2023-03-29T00:37:45;5.30;66.20
16503;DHT22;53067;48.114;11.694;2023-03-29T00:40:16;5.40;66.70
16503;DHT22;53067;48.114;11.694;2023-03-29T00:42:44;5.40;68.60
16503;DHT22;53067;48.114;11.694;2023-03-29T00:45:20;5.50;68.30
16503;DHT22;53067;48.114;11.694;2023-03-29T00:47:50;5.60;69.20
16503;DHT22;53067;48.114;11.694;2023-03-29T00:50:27;5.60;71.10
16503;DHT22;53067;48.114;11.694;2023-03-29T00:53:07;5.60;71.80
16503;DHT22;53067;48.114;11.694;2023-03-29T00:55:42;5.70;72.80
16503;DHT22;53067;48.114;11.694;2023-03-29T00:58:11;5.70;73.40
16503;DHT22;53067;48.114;11.694;2023-03-29T01:00:57;5.70;74.40
16503;DHT22;53067;48.114;11.694;2023-03-29T01:03:25;5.80;74.50
16503;DHT22;53067;48.114;11.694;2023-03-29T01:06:04;5.80;74.40
16503;DHT22;53067;48.114;11.694;2023-03-29T01:08:36;5.80;74.70
16503;DHT22;53067;48.114;11.694;2023-03-29T01:11:11;5.80;74.70
16503;DHT22;53067;48.114;11.694;2023-03-29T01:13:48;5.70;75.30
16503;DHT22;53067;48.114;11.694;2023-03-29T01:16:13;5.70;76.30
16503;DHT22;53067;48.114;11.694;2023-03-29T01:18:44;5.80;77.00
16503;DHT22;53067;48.114;11.694;2023-03-29T01:21:18;5.70;77.80
16503;DHT22;53067;48.114;11.694;2023-03-29T01:29:20;5.60;78.80
16503;DHT22;53067;48.114;11.694;2023-03-29T01:31:48;5.60;79.10
16503;DHT22;53067;48.114;11.694;2023-03-29T01:37:01;5.70;79.40
16503;DHT22;53067;48.114;11.694;2023-03-29T01:39:30;5.70;79.80
16503;DHT22;53067;48.114;11.694;2023-03-29T01:44:54;5.90;80.20
16503;DHT22;53067;48.114;11.694;2023-03-29T01:47:30;5.80;80.70
16503;DHT22;53067;48.114;11.694;2023-03-29T01:50:06;5.80;80.90
16503;DHT22;53067;48.114;11.694;2023-03-29T01:52:41;5.90;81.30
16503;DHT22;53067;48.114;11.694;2023-03-29T01:55:14;5.90;81.30
16503;DHT22;53067;48.114;11.694;2023-03-29T01:57:43;5.90;81.30
16503;DHT22;53067;48.114;11.694;2023-03-29T02:00:14;5.90;81.10
16503;DHT22;53067;48.114;11.694;2023-03-29T02:02:44;5.90;81.70
16503;DHT22;53067;48.114;11.694;2023-03-29T02:05:14;5.90;81.60
16503;DHT22;53067;48.114;11.694;2023-03-29T02:07:44;6.00;81.20
16503;DHT22;53067;48.114;11.694;2023-03-29T02:10:12;5.90;81.10
16503;DHT22;53067;48.114;11.694;2023-03-29T02:12:41;5.90;81.80
16503;DHT22;53067;48.114;11.694;2023-03-29T02:15:15;5.90;81.30
16503;DHT22;53067;48.114;11.694;2023-03-29T02:17:44;5.90;81.60
16503;DHT22;53067;48.114;11.694;2023-03-29T02:25:35;5.90;81.70
16503;DHT22;53067;48.114;11.694;2023-03-29T02:28:04;5.90;81.70
16503;DHT22;53067;48.114;11.694;2023-03-29T02:30:42;5.90;81.70
16503;DHT22;53067;48.114;11.694;2023-03-29T02:33:12;5.90;81.70
16503;DHT22;53067;48.114;11.694;2023-03-29T02:35:55;5.80;81.60
16503;DHT22;53067;48.114;11.694;2023-03-29T02:38:24;5.80;81.80
16503;DHT22;53067;48.114;11.694;2023-03-29T02:40:54;5.80;81.80
16503;DHT22;53067;48.114;11.694;2023-03-29T02:43:23;5.80;82.00
16503;DHT22;53067;48.114;11.694;2023-03-29T02:45:52;5.70;82.20
16503;DHT22;53067;48.114;11.694;2023-03-29T02:48:22;5.70;82.10
16503;DHT22;53067;48.114;11.694;2023-03-29T02:50:57;5.70;82.00
16503;DHT22;53067;48.114;11.694;2023-03-29T02:53:27;5.60;82.20
16503;DHT22;53067;48.114;11.694;2023-03-29T02:55:54;5.60;82.30
16503;DHT22;53067;48.114;11.694;2023-03-29T02:58:22;5.60;82.60
16503;DHT22;53067;48.114;11.694;2023-03-29T03:00:51;5.50;82.60
16503;DHT22;53067;48.114;11.694;2023-03-29T03:03:39;5.60;82.70
16503;DHT22;53067;48.114;11.694;2023-03-29T03:06:06;5.60;81.90
16503;DHT22;53067;48.114;11.694;2023-03-29T03:08:34;5.60;81.90
16503;DHT22;53067;48.114;11.694;2023-03-29T03:11:01;5.60;81.80
16503;DHT22;53067;48.114;11.694;2023-03-29T03:13:29;5.60;82.60
16503;DHT22;53067;48.114;11.694;2023-03-29T03:15:56;5.60;82.00
16503;DHT22;53067;48.114;11.694;2023-03-29T03:18:43;5.60;82.20
16503;DHT22;53067;48.114;11.694;2023-03-29T03:21:11;5.60;82.40
16503;DHT22;53067;48.114;11.694;2023-03-29T03:23:39;5.50;82.70
16503;DHT22;53067;48.114;11.694;2023-03-29T03:26:06;5.50;82.50
16503;DHT22;53067;48.114;11.694;2023-03-29T03:28:34;5.40;83.50
16503;DHT22;53067;48.114;11.694;2023-03-29T03:31:01;5.40;82.70
16503;DHT22;53067;48.114;11.694;2023-03-29T03:33:29;5.40;82.70
16503;DHT22;53067;48.114;11.694;2023-03-29T03:35:57;5.50;82.80
16503;DHT22;53067;48.114;11.694;2023-03-29T03:38:26;5.40;83.20
16503;DHT22;53067;48.114;11.694;2023-03-29T03:40:55;5.40;82.70
16503;DHT22;53067;48.114;11.694;2023-03-29T03:43:23;5.40;82.70
16503;DHT22;53067;48.114;11.694;2023-03-29T03:45:51;5.30;83.00
16503;DHT22;53067;48.114;11.694;2023-03-29T03:48:20;5.20;83.10
16503;DHT22;53067;48.114;11.694;2023-03-29T03:50:50;5.20;83.40
16503;DHT22;53067;48.114;11.694;2023-03-29T03:53:18;5.20;83.30
16503;DHT22;53067;48.114;11.694;2023-03-29T03:58:39;5.10;83.40
16503;DHT22;53067;48.114;11.694;2023-03-29T04:01:07;5.10;83.50
16503;DHT22;53067;48.114;11.694;2023-03-29T04:03:35;5.10;83.40
16503;DHT22;53067;48.114;11.694;2023-03-29T04:06:06;5.10;83.60
16503;DHT22;53067;48.114;11.694;2023-03-29T04:08:33;5.10;83.70
16503;DHT22;53067;48.114;11.694;2023-03-29T04:11:01;5.00;83.60
16503;DHT22;53067;48.114;11.694;2023-03-29T04:13:29;5.10;83.60
16503;DHT22;53067;48.114;11.694;2023-03-29T04:15:57;5.10;83.50
16503;DHT22;53067;48.114;11.694;2023-03-29T04:18:26;5.10;83.50
16503;DHT22;53067;48.114;11.694;2023-03-29T04:20:53;5.10;83.20
16503;DHT22;53067;48.114;11.694;2023-03-29T04:23:21;5.10;83.20
16503;DHT22;53067;48.114;11.694;2023-03-29T04:25:48;5.10;83.30
16503;DHT22;53067;48.114;11.694;2023-03-29T04:28:17;5.20;83.00
16503;DHT22;53067;48.114;11.694;2023-03-29T04:30:45;5.20;83.00
16503;DHT22;53067;48.114;11.694;2023-03-29T04:33:14;5.20;83.10
16503;DHT22;53067;48.114;11.694;2023-03-29T04:35:42;5.20;83.00
16503;DHT22;53067;48.114;11.694;2023-03-29T04:38:09;5.30;83.10
16503;DHT22;53067;48.114;11.694;2023-03-29T04:40:37;5.30;83.00
16503;DHT22;53067;48.114;11.694;2023-03-29T04:43:05;5.30;82.90
16503;DHT22;53067;48.114;11.694;2023-03-29T04:45:32;5.40;82.90
16503;DHT22;53067;48.114;11.694;2023-03-29T04:48:00;5.40;82.80
16503;DHT22;53067;48.114;11.694;2023-03-29T04:50:27;5.40;82.80
16503;DHT22;53067;48.114;11.694;2023-03-29T04:52:55;5.50;82.80
16503;DHT22;53067;48.114;11.694;2023-03-29T04:55:22;5.60;82.80
16503;DHT22;53067;48.114;11.694;2023-03-29T04:57:50;5.60;82.80
16503;DHT22;53067;48.114;11.694;2023-03-29T05:00:19;5.60;82.80
16503;DHT22;53067;48.114;11.694;2023-03-29T05:02:48;5.60;83.00
16503;DHT22;53067;48.114;11.694;2023-03-29T05:05:16;5.70;82.90
16503;DHT22;53067;48.114;11.694;2023-03-29T05:07:43;5.70;83.10
16503;DHT22;53067;48.114;11.694;2023-03-29T05:10:11;5.70;83.30
16503;DHT22;53067;48.114;11.694;2023-03-29T05:12:39;5.80;83.30
16503;DHT22;53067;48.114;11.694;2023-03-29T05:15:07;5.80;83.50
16503;DHT22;53067;48.114;11.694;2023-03-29T05:17:35;5.90;83.30
16503;DHT22;53067;48.114;11.694;2023-03-29T05:20:03;5.90;83.30
16503;DHT22;53067;48.114;11.694;2023-03-29T05:22:35;6.00;83.30
16503;DHT22;53067;48.114;11.694;2023-03-29T05:25:04;6.10;83.30
16503;DHT22;53067;48.114;11.694;2023-03-29T05:27:33;6.10;83.50
16503;DHT22;53067;48.114;11.694;2023-03-29T05:30:01;6.20;83.30
16503;DHT22;53067;48.114;11.694;2023-03-29T05:32:28;6.20;83.20
16503;DHT22;53067;48.114;11.694;2023-03-29T05:34:56;6.30;83.40
16503;DHT22;53067;48.114;11.694;2023-03-29T05:37:24;6.30;83.30
16503;DHT22;53067;48.114;11.694;2023-03-29T05:39:52;6.40;83.00
16503;DHT22;53067;48.114;11.694;2023-03-29T05:42:20;6.50;82.90
16503;DHT22;53067;48.114;11.694;2023-03-29T05:44:49;6.50;82.50
16503;DHT22;53067;48.114;11.694;2023-03-29T05:47:16;6.60;82.30
16503;DHT22;53067;48.114;11.694;2023-03-29T05:49:44;6.60;82.00
16503;DHT22;53067;48.114;11.694;2023-03-29T05:52:12;6.70;81.80
16503;DHT22;53067;48.114;11.694;2023-03-29T05:54:40;6.80;81.60
16503;DHT22;53067;48.114;11.694;2023-03-29T05:57:07;6.90;81.60
16503;DHT22;53067;48.114;11.694;2023-03-29T05:59:35;7.00;81.20
16503;DHT22;53067;48.114;11.694;2023-03-29T06:02:04;7.00;81.20
16503;DHT22;53067;48.114;11.694;2023-03-29T06:04:32;7.10;81.00
16503;DHT22;53067;48.114;11.694;2023-03-29T06:07:01;7.20;80.60
16503;DHT22;53067;48.114;11.694;2023-03-29T06:09:30;7.30;80.10
16503;DHT22;53067;48.114;11.694;2023-03-29T06:11:58;7.30;80.10
16503;DHT22;53067;48.114;11.694;2023-03-29T06:14:27;7.40;80.00
16503;DHT22;53067;48.114;11.694;2023-03-29T06:16:55;7.40;79.80
16503;DHT22;53067;48.114;11.694;2023-03-29T06:19:23;7.50;79.70
16503;DHT22;53067;48.114;11.694;2023-03-29T06:21:50;7.50;79.50
16503;DHT22;53067;48.114;11.694;2023-03-29T06:24:19;7.50;79.50
16503;DHT22;53067;48.114;11.694;2023-03-29T06:26:46;7.50;79.60
16503;DHT22;53067;48.114;11.694;2023-03-29T06:29:14;7.60;79.60
16503;DHT22;53067;48.114;11.694;2023-03-29T06:31:42;7.50;79.30
16503;DHT22;53067;48.114;11.694;2023-03-29T06:34:09;7.50;79.50
16503;DHT22;53067;48.114;11.694;2023-03-29T06:36:38;7.50;79.30
16503;DHT22;53067;48.114;11.694;2023-03-29T06:39:06;7.50;79.00
16503;DHT22;53067;48.114;11.694;2023-03-29T06:41:33;7.50;78.80
16503;DHT22;53067;48.114;11.694;2023-03-29T06:44:01;7.50;78.70
16503;DHT22;53067;48.114;11.694;2023-03-29T06:46:29;7.50;78.40
16503;DHT22;53067;48.114;11.694;2023-03-29T06:48:57;7.60;78.20
16503;DHT22;53067;48.114;11.694;2023-03-29T06:51:24;7.60;78.20
16503;DHT22;53067;48.114;11.694;2023-03-29T06:53:53;7.70;77.50
16503;DHT22;53067;48.114;11.694;2023-03-29T06:56:20;7.80;77.10
16503;DHT22;53067;48.114;11.694;2023-03-29T06:58:48;7.90;76.00
16503;DHT22;53067;48.114;11.694;2023-03-29T07:01:15;8.00;75.90
16503;DHT22;53067;48.114;11.694;2023-03-29T07:03:43;8.00;75.60
16503;DHT22;53067;48.114;11.694;2023-03-29T07:06:10;8.10;75.30
16503;DHT22;53067;48.114;11.694;2023-03-29T07:08:40;8.20;75.30
16503;DHT22;53067;48.114;11.694;2023-03-29T07:11:13;8.20;74.80
16503;DHT22;53067;48.114;11.694;2023-03-29T07:13:42;8.30;74.70
16503;DHT22;53067;48.114;11.694;2023-03-29T07:16:12;8.40;74.60
16503;DHT22;53067;48.114;11.694;2023-03-29T07:18:41;8.40;74.60
16503;DHT22;53067;48.114;11.694;2023-03-29T07:21:10;8.50;74.60
16503;DHT22;53067;48.114;11.694;2023-03-29T07:23:39;8.60;74.20
16503;DHT22;53067;48.114;11.694;2023-03-29T07:26:07;8.60;74.30
16503;DHT22;53067;48.114;11.694;2023-03-29T07:28:36;8.70;73.80
16503;DHT22;53067;48.114;11.694;2023-03-29T07:31:07;8.80;73.80
16503;DHT22;53067;48.114;11.694;2023-03-29T07:33:36;8.90;73.60
16503;DHT22;53067;48.114;11.694;2023-03-29T07:36:06;8.90;73.60
16503;DHT22;53067;48.114;11.694;2023-03-29T07:38:34;9.00;73.50
16503;DHT22;53067;48.114;11.694;2023-03-29T07:41:06;9.10;73.20
16503;DHT22;53067;48.114;11.694;2023-03-29T07:43:34;9.20;72.60
16503;DHT22;53067;48.114;11.694;2023-03-29T07:46:02;9.30;72.20
16503;DHT22;53067;48.114;11.694;2023-03-29T07:48:31;9.40;71.90
16503;DHT22;53067;48.114;11.694;2023-03-29T07:50:59;9.50;71.10
16503;DHT22;53067;48.114;11.694;2023-03-29T07:53:26;9.60;70.70
16503;DHT22;53067;48.114;11.694;2023-03-29T07:55:55;9.70;70.10
16503;DHT22;53067;48.114;11.694;2023-03-29T07:58:22;9.70;69.20
16503;DHT22;53067;48.114;11.694;2023-03-29T08:00:50;9.80;69.10
16503;DHT22;53067;48.114;11.694;2023-03-29T08:03:18;9.80;68.80
16503;DHT22;53067;48.114;11.694;2023-03-29T08:05:46;9.80;68.40
16503;DHT22;53067;48.114;11.694;2023-03-29T08:08:13;9.80;67.90
16503;DHT22;53067;48.114;11.694;2023-03-29T08:10:41;9.90;68.50
16503;DHT22;53067;48.114;11.694;2023-03-29T08:13:10;10.00;67.80
16503;DHT22;53067;48.114;11.694;2023-03-29T08:15:38;10.00;67.50
16503;DHT22;53067;48.114;11.694;2023-03-29T08:18:07;10.00;67.10
16503;DHT22;53067;48.114;11.694;2023-03-29T08:20:35;10.00;67.00
16503;DHT22;53067;48.114;11.694;2023-03-29T08:23:03;10.10;67.10
16503;DHT22;53067;48.114;11.694;2023-03-29T08:25:30;10.10;66.50
16503;DHT22;53067;48.114;11.694;2023-03-29T08:27:58;10.20;66.00
16503;DHT22;53067;48.114;11.694;2023-03-29T08:30:26;10.20;66.30
16503;DHT22;53067;48.114;11.694;2023-03-29T08:32:53;10.30;67.10
16503;DHT22;53067;48.114;11.694;2023-03-29T08:35:21;10.30;65.30
16503;DHT22;53067;48.114;11.694;2023-03-29T08:37:49;10.30;65.40
16503;DHT22;53067;48.114;11.694;2023-03-29T08:40:22;10.30;65.60
16503;DHT22;53067;48.114;11.694;2023-03-29T08:48:33;10.40;64.60
16503;DHT22;53067;48.114;11.694;2023-03-29T08:51:04;10.30;65.00
16503;DHT22;53067;48.114;11.694;2023-03-29T08:53:40;10.30;65.20
16503;DHT22;53067;48.114;11.694;2023-03-29T08:56:21;10.40;65.30
16503;DHT22;53067;48.114;11.694;2023-03-29T08:58:47;10.50;65.50
16503;DHT22;53067;48.114;11.694;2023-03-29T09:01:16;10.60;65.40
16503;DHT22;53067;48.114;11.694;2023-03-29T09:03:48;10.60;65.30
16503;DHT22;53067;48.114;11.694;2023-03-29T09:06:19;10.70;66.80
16503;DHT22;53067;48.114;11.694;2023-03-29T09:08:49;10.90;65.30
16503;DHT22;53067;48.114;11.694;2023-03-29T09:11:37;11.00;65.00
16503;DHT22;53067;48.114;11.694;2023-03-29T09:19:21;11.20;65.20
16503;DHT22;53067;48.114;11.694;2023-03-29T09:24:58;11.30;64.30
16503;DHT22;53067;48.114;11.694;2023-03-29T09:27:26;11.30;64.30
16503;DHT22;53067;48.114;11.694;2023-03-29T09:33:16;11.20;64.40
16503;DHT22;53067;48.114;11.694;2023-03-29T09:35:43;11.20;64.30
16503;DHT22;53067;48.114;11.694;2023-03-29T09:38:12;11.30;64.40
16503;DHT22;53067;48.114;11.694;2023-03-29T09:41:17;11.30;64.00
16503;DHT22;53067;48.114;11.694;2023-03-29T09:43:37;11.30;64.20
16503;DHT22;53067;48.114;11.694;2023-03-29T09:46:08;11.40;63.80
16503;DHT22;53067;48.114;11.694;2023-03-29T09:48:38;11.40;63.30
16503;DHT22;53067;48.114;11.694;2023-03-29T09:51:08;11.50;63.70
16503;DHT22;53067;48.114;11.694;2023-03-29T09:53:36;11.50;64.10
16503;DHT22;53067;48.114;11.694;2023-03-29T09:56:05;11.50;62.80
16503;DHT22;53067;48.114;11.694;2023-03-29T09:58:34;11.50;63.90
16503;DHT22;53067;48.114;11.694;2023-03-29T10:01:05;11.50;62.90
16503;DHT22;53067;48.114;11.694;2023-03-29T10:03:35;11.50;63.50
16503;DHT22;53067;48.114;11.694;2023-03-29T10:06:10;11.50;62.50
16503;DHT22;53067;48.114;11.694;2023-03-29T10:08:41;11.50;62.70
16503;DHT22;53067;48.114;11.694;2023-03-29T10:13:51;11.70;61.60
16503;DHT22;53067;48.114;11.694;2023-03-29T10:16:22;11.80;61.80
16503;DHT22;53067;48.114;11.694;2023-03-29T10:18:51;11.90;62.30
16503;DHT22;53067;48.114;11.694;2023-03-29T10:21:20;12.10;61.80
16503;DHT22;53067;48.114;11.694;2023-03-29T10:23:55;12.20;61.30
16503;DHT22;53067;48.114;11.694;2023-03-29T10:26:26;12.40;60.40
16503;DHT22;53067;48.114;11.694;2023-03-29T10:28:54;12.50;60.30
16503;DHT22;53067;48.114;11.694;2023-03-29T10:31:24;12.50;59.20
16503;DHT22;53067;48.114;11.694;2023-03-29T10:33:55;12.60;58.70
16503;DHT22;53067;48.114;11.694;2023-03-29T10:36:25;12.60;58.00
16503;DHT22;53067;48.114;11.694;2023-03-29T10:39:00;12.60;57.90
16503;DHT22;53067;48.114;11.694;2023-03-29T10:41:25;12.70;58.70
16503;DHT22;53067;48.114;11.694;2023-03-29T10:43:53;12.70;58.20
16503;DHT22;53067;48.114;11.694;2023-03-29T10:46:31;12.70;58.50
16503;DHT22;53067;48.114;11.694;2023-03-29T10:48:57;12.70;57.00
16503;DHT22;53067;48.114;11.694;2023-03-29T10:51:27;12.70;56.90
16503;DHT22;53067;48.114;11.694;2023-03-29T10:53:58;12.90;57.60
16503;DHT22;53067;48.114;11.694;2023-03-29T10:59:37;13.30;55.40
16503;DHT22;53067;48.114;11.694;2023-03-29T11:04:47;13.40;54.80
16503;DHT22;53067;48.114;11.694;2023-03-29T11:10:42;13.60;54.40
16503;DHT22;53067;48.114;11.694;2023-03-29T11:16:33;13.60;54.30
16503;DHT22;53067;48.114;11.694;2023-03-29T11:19:13;13.70;53.80
16503;DHT22;53067;48.114;11.694;2023-03-29T11:24:34;13.70;53.60
16503;DHT22;53067;48.114;11.694;2023-03-29T11:27:11;13.60;54.50
16503;DHT22;53067;48.114;11.694;2023-03-29T11:37:56;14.00;52.30
16503;DHT22;53067;48.114;11.694;2023-03-29T11:40:56;14.20;52.30
16503;DHT22;53067;48.114;11.694;2023-03-29T11:43:34;14.30;50.50
16503;DHT22;53067;48.114;11.694;2023-03-29T11:49:15;14.50;50.70
16503;DHT22;53067;48.114;11.694;2023-03-29T11:51:51;14.50;50.60
16503;DHT22;53067;48.114;11.694;2023-03-29T11:54:30;14.70;50.00
16503;DHT22;53067;48.114;11.694;2023-03-29T11:57:03;14.60;49.50
16503;DHT22;53067;48.114;11.694;2023-03-29T11:59:35;14.50;49.30
16503;DHT22;53067;48.114;11.694;2023-03-29T12:02:20;14.60;48.80
16503;DHT22;53067;48.114;11.694;2023-03-29T12:04:48;14.50;48.40
16503;DHT22;53067;48.114;11.694;2023-03-29T12:07:42;14.40;48.80
16503;DHT22;53067;48.114;11.694;2023-03-29T12:10:23;14.40;48.70
16503;DHT22;53067;48.114;11.694;2023-03-29T12:13:00;14.50;48.20
16503;DHT22;53067;48.114;11.694;2023-03-29T12:15:44;14.40;48.60
16503;DHT22;53067;48.114;11.694;2023-03-29T12:18:23;14.60;48.40
16503;DHT22;53067;48.114;11.694;2023-03-29T12:20:50;14.50;47.20
16503;DHT22;53067;48.114;11.694;2023-03-29T12:23:17;14.60;47.80
16503;DHT22;53067;48.114;11.694;2023-03-29T12:26:00;14.60;47.00
16503;DHT22;53067;48.114;11.694;2023-03-29T12:28:54;14.70;47.30
16503;DHT22;53067;48.114;11.694;2023-03-29T12:31:32;14.80;46.70
16503;DHT22;53067;48.114;11.694;2023-03-29T12:34:06;14.80;46.70
16503;DHT22;53067;48.114;11.694;2023-03-29T12:39:31;14.70;46.20
16503;DHT22;53067;48.114;11.694;2023-03-29T12:42:17;14.70;46.20
16503;DHT22;53067;48.114;11.694;2023-03-29T12:44:48;14.80;46.10
16503;DHT22;53067;48.114;11.694;2023-03-29T12:47:24;14.80;45.70
16503;DHT22;53067;48.114;11.694;2023-03-29T12:49:44;14.80;46.30
16503;DHT22;53067;48.114;11.694;2023-03-29T12:52:21;14.80;46.30
16503;DHT22;53067;48.114;11.694;2023-03-29T12:54:55;14.90;45.50
16503;DHT22;53067;48.114;11.694;2023-03-29T12:57:55;14.80;45.10
16503;DHT22;53067;48.114;11.694;2023-03-29T13:02:42;14.60;45.30
16503;DHT22;53067;48.114;11.694;2023-03-29T13:05:30;14.60;45.80
16503;DHT22;53067;48.114;11.694;2023-03-29T13:08:09;14.60;46.00
16503;DHT22;53067;48.114;11.694;2023-03-29T13:13:10;14.60;46.20
16503;DHT22;53067;48.114;11.694;2023-03-29T13:15:38;14.80;46.70
16503;DHT22;53067;48.114;11.694;2023-03-29T13:18:23;15.10;46.10
16503;DHT22;53067;48.114;11.694;2023-03-29T13:21:13;15.40;45.50
16503;DHT22;53067;48.114;11.694;2023-03-29T13:23:53;15.80;45.20
16503;DHT22;53067;48.114;11.694;2023-03-29T13:26:44;16.30;43.40
16503;DHT22;53067;48.114;11.694;2023-03-29T13:29:46;16.60;42.70
16503;DHT22;53067;48.114;11.694;2023-03-29T13:32:41;16.70;43.30
16503;DHT22;53067;48.114;11.694;2023-03-29T13:40:46;16.70;43.20
16503;DHT22;53067;48.114;11.694;2023-03-29T13:48:31;17.00;42.30
16503;DHT22;53067;48.114;11.694;2023-03-29T13:56:38;17.00;42.50
16503;DHT22;53067;48.114;11.694;2023-03-29T13:59:12;16.80;42.30
16503;DHT22;53067;48.114;11.694;2023-03-29T14:01:42;16.50;43.00
16503;DHT22;53067;48.114;11.694;2023-03-29T14:04:15;16.50;43.50
16503;DHT22;53067;48.114;11.694;2023-03-29T14:06:44;16.40;43.20
16503;DHT22;53067;48.114;11.694;2023-03-29T14:09:12;16.20;40.10
16503;DHT22;53067;48.114;11.694;2023-03-29T14:14:30;15.90;40.20
16503;DHT22;53067;48.114;11.694;2023-03-29T14:16:59;15.80;40.00
16503;DHT22;53067;48.114;11.694;2023-03-29T14:19:29;15.80;40.90
16503;DHT22;53067;48.114;11.694;2023-03-29T14:22:00;15.80;41.30
16503;DHT22;53067;48.114;11.694;2023-03-29T14:24:39;15.70;40.90
16503;DHT22;53067;48.114;11.694;2023-03-29T14:27:10;15.60;41.60
16503;DHT22;53067;48.114;11.694;2023-03-29T14:29:37;15.50;42.00
16503;DHT22;53067;48.114;11.694;2023-03-29T14:32:15;15.40;42.70
16503;DHT22;53067;48.114;11.694;2023-03-29T14:34:47;15.30;42.50
16503;DHT22;53067;48.114;11.694;2023-03-29T14:37:24;15.20;42.80
16503;DHT22;53067;48.114;11.694;2023-03-29T14:39:48;15.20;43.00
16503;DHT22;53067;48.114;11.694;2023-03-29T14:42:24;15.20;44.00
16503;DHT22;53067;48.114;11.694;2023-03-29T14:45:00;15.20;43.70
16503;DHT22;53067;48.114;11.694;2023-03-29T14:47:29;15.20;44.10
16503;DHT22;53067;48.114;11.694;2023-03-29T14:49:58;15.20;43.70
16503;DHT22;53067;48.114;11.694;2023-03-29T14:52:30;15.20;43.90
16503;DHT22;53067;48.114;11.694;2023-03-29T14:54:59;15.20;44.20
16503;DHT22;53067;48.114;11.694;2023-03-29T14:57:34;15.10;44.20
16503;DHT22;53067;48.114;11.694;2023-03-29T15:00:20;15.10;44.60
16503;DHT22;53067;48.114;11.694;2023-03-29T15:02:53;15.10;44.80
16503;DHT22;53067;48.114;11.694;2023-03-29T15:05:38;15.10;45.00
16503;DHT22;53067;48.114;11.694;2023-03-29T15:08:11;15.10;45.50
16503;DHT22;53067;48.114;11.694;2023-03-29T15:10:37;14.90;46.00
16503;DHT22;53067;48.114;11.694;2023-03-29T15:13:07;14.90;46.30
16503;DHT22;53067;48.114;11.694;2023-03-29T15:15:36;14.90;46.80
16503;DHT22;53067;48.114;11.694;2023-03-29T15:18:06;14.90;47.30
16503;DHT22;53067;48.114;11.694;2023-03-29T15:20:36;14.80;48.20
16503;DHT22;53067;48.114;11.694;2023-03-29T15:26:22;14.70;49.50
16503;DHT22;53067;48.114;11.694;2023-03-29T15:28:50;14.60;50.50
16503;DHT22;53067;48.114;11.694;2023-03-29T15:31:17;14.50;51.50
16503;DHT22;53067;48.114;11.694;2023-03-29T15:33:45;14.40;52.40
16503;DHT22;53067;48.114;11.694;2023-03-29T15:36:13;14.40;53.20
16503;DHT22;53067;48.114;11.694;2023-03-29T15:38:42;14.30;53.10
16503;DHT22;53067;48.114;11.694;2023-03-29T15:41:10;14.20;54.00
16503;DHT22;53067;48.114;11.694;2023-03-29T15:43:37;14.00;54.00
16503;DHT22;53067;48.114;11.694;2023-03-29T15:46:05;13.90;55.10
16503;DHT22;53067;48.114;11.694;2023-03-29T15:48:32;13.90;55.80
16503;DHT22;53067;48.114;11.694;2023-03-29T15:51:00;13.80;56.10
16503;DHT22;53067;48.114;11.694;2023-03-29T15:53:27;13.80;55.90
16503;DHT22;53067;48.114;11.694;2023-03-29T15:55:57;13.80;56.20
16503;DHT22;53067;48.114;11.694;2023-03-29T15:58:29;13.80;56.20
16503;DHT22;53067;48.114;11.694;2023-03-29T16:01:21;13.80;56.50
16503;DHT22;53067;48.114;11.694;2023-03-29T16:03:27;13.90;56.60
16503;DHT22;53067;48.114;11.694;2023-03-29T16:05:55;13.90;56.50
16503;DHT22;53067;48.114;11.694;2023-03-29T16:08:23;13.80;56.80
16503;DHT22;53067;48.114;11.694;2023-03-29T16:10:51;13.70;57.40
16503;DHT22;53067;48.114;11.694;2023-03-29T16:13:18;13.70;57.70
16503;DHT22;53067;48.114;11.694;2023-03-29T16:15:46;13.60;58.20
16503;DHT22;53067;48.114;11.694;2023-03-29T16:18:14;13.60;58.60
16503;DHT22;53067;48.114;11.694;2023-03-29T16:20:42;13.60;59.70
16503;DHT22;53067;48.114;11.694;2023-03-29T16:23:09;13.60;60.20
16503;DHT22;53067;48.114;11.694;2023-03-29T16:25:38;13.60;61.60
16503;DHT22;53067;48.114;11.694;2023-03-29T16:28:07;13.50;62.00
16503;DHT22;53067;48.114;11.694;2023-03-29T16:30:36;13.50;61.90
16503;DHT22;53067;48.114;11.694;2023-03-29T16:33:04;13.50;62.30
16503;DHT22;53067;48.114;11.694;2023-03-29T16:35:36;13.40;62.40
16503;DHT22;53067;48.114;11.694;2023-03-29T16:38:05;13.40;62.60
16503;DHT22;53067;48.114;11.694;2023-03-29T16:40:34;13.40;63.00
16503;DHT22;53067;48.114;11.694;2023-03-29T16:43:13;13.40;63.30
16503;DHT22;53067;48.114;11.694;2023-03-29T16:45:41;13.40;63.00
16503;DHT22;53067;48.114;11.694;2023-03-29T16:48:14;13.30;63.10
16503;DHT22;53067;48.114;11.694;2023-03-29T16:50:44;13.30;63.00
16503;DHT22;53067;48.114;11.694;2023-03-29T16:53:17;13.20;62.80
16503;DHT22;53067;48.114;11.694;2023-03-29T16:55:48;13.20;62.70
16503;DHT22;53067;48.114;11.694;2023-03-29T16:58:16;13.20;63.00
16503;DHT22;53067;48.114;11.694;2023-03-29T17:00:43;13.10;64.20
16503;DHT22;53067;48.114;11.694;2023-03-29T17:03:11;13.00;63.70
16503;DHT22;53067;48.114;11.694;2023-03-29T17:05:38;13.00;64.00
16503;DHT22;53067;48.114;11.694;2023-03-29T17:08:07;13.10;64.80
16503;DHT22;53067;48.114;11.694;2023-03-29T17:10:35;13.10;65.70
16503;DHT22;53067;48.114;11.694;2023-03-29T17:13:04;13.20;67.50
16503;DHT22;53067;48.114;11.694;2023-03-29T17:15:32;13.10;68.00
16503;DHT22;53067;48.114;11.694;2023-03-29T17:17:59;13.10;70.30
16503;DHT22;53067;48.114;11.694;2023-03-29T17:20:27;13.00;71.30